Time;durP1;ratioP1;P1;durP2;ratioP2;P2;SDS_P1;SDS_P2;PMS_P1;PMS_P2;Temp;Humidity;BMP_temperature;BMP_pressure;BME280_temperature;BME280_humidity;BME280_pressure;Samples;Min_cycle;Max_cycle;Signal;HPM_P1;HPM_P2
2021/04/10 00:00:58;;;;;;;51.70;25.05;;;;;;;7.24;50.43;100031.69;5034418;27;101310;-74
2021/04/10 00:03:23;;;;;;;53.63;25.80;;;;;;;7.23;50.02;100022.13;5043032;27;101424;-75
2021/04/10 00:05:49;;;;;;;58.53;25.13;;;;;;;7.18;51.14;100026.59;5038241;27;96645;-74
2021/04/10 00:08:15;;;;;;;54.45;26.20;;;;;;;7.11;50.88;100024.19;5073580;27;97488;-74
2021/04/10 00:10:40;;;;;;;54.23;25.73;;;;;;;7.01;51.03;100020.91;5054569;27;99071;-74
2021/04/10 00:13:06;;;;;;;51.20;26.90;;;;;;;6.99;50.77;100022.72;5039014;27;101607;-74
2021/04/10 00:15:32;;;;;;;61.00;28.02;;;;;;;6.88;50.98;100024.75;5054824;27;97425;-77
2021/04/10 00:17:58;;;;;;;54.70;27.57;;;;;;;6.90;51.01;100029.03;5055751;27;97385;-74
2021/04/10 00:20:24;;;;;;;61.17;28.83;;;;;;;6.88;51.17;100027.34;5020234;27;101168;-75
2021/04/10 00:22:50;;;;;;;61.03;29.07;;;;;;;6.85;51.77;100027.41;5028266;27;100514;-75
2021/04/10 00:25:16;;;;;;;68.80;28.90;;;;;;;6.84;51.59;100028.31;5055908;27;96682;-74
2021/04/10 00:27:42;;;;;;;65.33;29.87;;;;;;;6.70;51.60;100023.41;5072363;27;97444;-74
2021/04/10 00:30:11;;;;;;;61.90;29.20;;;;;;;6.69;51.35;100019.06;5034699;27;101058;-75
2021/04/10 00:32:37;;;;;;;65.47;29.77;;;;;;;6.71;51.44;100019.91;5050765;27;98149;-74
2021/04/10 00:35:04;;;;;;;63.63;30.33;;;;;;;6.80;50.76;100019.69;5050336;27;97322;-76
2021/04/10 00:37:29;;;;;;;64.33;29.83;;;;;;;6.79;51.15;100015.38;5043567;27;97079;-79
2021/04/10 00:39:55;;;;;;;65.27;28.97;;;;;;;6.88;50.50;100014.31;5070612;27;98859;-74
2021/04/10 00:42:21;;;;;;;67.63;30.80;;;;;;;6.85;51.72;100017.84;5034416;27;100927;-75
2021/04/10 00:44:46;;;;;;;65.20;30.67;;;;;;;6.81;52.15;100011.00;5036701;27;97246;-74
2021/04/10 00:47:14;;;;;;;56.23;28.13;;;;;;;6.74;52.02;100009.41;5038947;27;97053;-74
2021/04/10 00:49:39;;;;;;;68.90;32.07;;;;;;;6.65;52.29;100014.84;5037802;27;101480;-76
2021/04/10 00:52:08;;;;;;;60.00;30.47;;;;;;;6.66;52.36;100003.50;5041310;27;101185;-74
2021/04/10 00:54:34;;;;;;;58.00;28.20;;;;;;;6.58;51.57;100001.94;5054207;27;96915;-75
2021/04/10 00:57:00;;;;;;;64.13;31.23;;;;;;;6.60;51.52;100009.72;5055379;27;96924;-74
2021/04/10 00:59:25;;;;;;;64.47;31.70;;;;;;;6.52;50.93;100009.91;5056785;27;101530;-74
2021/04/10 01:01:51;;;;;;;63.73;29.33;;;;;;;6.54;51.69;100005.53;5045419;27;101221;-74
2021/04/10 01:04:17;;;;;;;71.40;30.97;;;;;;;6.56;52.11;100005.47;5053756;27;96771;-74
2021/04/10 01:06:43;;;;;;;66.93;31.03;;;;;;;6.31;52.77;100008.63;5040616;27;96760;-75
2021/04/10 01:09:09;;;;;;;72.73;33.20;;;;;;;6.27;52.18;100011.31;5054076;27;101205;-75
2021/04/10 01:11:52;;;;;;;70.13;33.47;;;;;;;6.30;52.39;100009.50;5028117;27;101513;-75
2021/04/10 01:14:33;;;;;;;69.00;36.60;;;;;;;6.24;52.87;100014.84;5075514;27;96830;-74
2021/04/10 01:17:01;;;;;;;79.87;37.80;;;;;;;6.13;53.13;100006.38;5068037;27;97578;-74
2021/04/10 01:19:39;;;;;;;83.00;39.10;;;;;;;6.12;53.19;100015.97;5040485;27;101186;-74
2021/04/10 01:22:11;;;;;;;78.70;39.10;;;;;;;6.16;52.21;100014.13;5074269;27;101433;-74
2021/04/10 01:24:50;;;;;;;;;;;;;;;6.11;53.68;100006.44;5037372;27;96968;-76
2021/04/10 01:27:22;;;;;;;96.90;49.93;;;;;;;5.96;53.74;100011.94;5029487;27;96861;-74
2021/04/10 01:29:51;;;;;;;81.38;38.13;;;;;;;5.95;52.63;100014.59;5054979;27;101616;-75
2021/04/10 01:32:17;;;;;;;82.23;39.50;;;;;;;5.97;53.27;100007.59;5036848;27;101361;-75
2021/04/10 01:34:48;;;;;;;84.03;43.33;;;;;;;5.95;53.47;100019.81;5051115;27;97296;-74
2021/04/10 01:37:18;;;;;;;89.07;42.47;;;;;;;5.86;53.88;100015.59;5048297;27;97181;-75
2021/04/10 01:39:45;;;;;;;74.07;36.00;;;;;;;5.87;52.78;100009.47;5070660;27;98148;-74
2021/04/10 01:42:12;;;;;;;85.53;39.07;;;;;;;5.80;53.21;100003.53;5046817;27;101439;-74
2021/04/10 01:44:39;;;;;;;67.30;31.13;;;;;;;5.73;53.06;99999.38;5035750;27;96794;-76
2021/04/10 01:47:08;;;;;;;71.30;32.80;;;;;;;5.80;52.99;99992.28;5041292;27;96884;-74
2021/04/10 01:49:34;;;;;;;73.17;33.00;;;;;;;5.80;53.03;100002.69;5022253;27;101475;-79
2021/04/10 01:52:02;;;;;;;66.87;33.40;;;;;;;5.82;53.05;100003.53;5043994;27;101323;-74
2021/04/10 01:54:29;;;;;;;73.77;34.43;;;;;;;5.79;53.48;100008.78;5043925;27;97239;-74
2021/04/10 01:56:55;;;;;;;68.03;32.47;;;;;;;5.76;53.22;100001.91;5053314;27;97005;-75
2021/04/10 01:59:25;;;;;;;71.33;32.10;;;;;;;5.66;54.29;100001.19;5035951;27;102185;-74
2021/04/10 02:01:55;;;;;;;70.83;33.47;;;;;;;5.64;53.90;100003.00;5052829;27;101200;-77
2021/04/10 02:04:31;;;;;;;69.00;31.97;;;;;;;5.65;54.24;100007.31;5059884;27;97080;-74
2021/04/10 02:06:57;;;;;;;77.90;31.60;;;;;;;5.55;54.20;100004.91;5057357;27;97831;-74
2021/04/10 02:09:27;;;;;;;76.50;32.70;;;;;;;5.51;54.39;100005.84;5041077;27;101909;-74
2021/04/10 02:12:04;;;;;;;65.37;31.00;;;;;;;5.36;54.89;100007.00;5057908;27;101398;-77
2021/04/10 02:14:37;;;;;;;63.00;30.27;;;;;;;5.39;54.83;100007.78;5037104;27;96967;-75
2021/04/10 02:17:07;;;;;;;72.00;28.77;;;;;;;5.39;54.93;100004.31;5051310;27;96965;-74
2021/04/10 02:19:39;;;;;;;63.77;29.23;;;;;;;5.40;54.52;99991.28;5057031;27;101733;-77
2021/04/10 02:22:09;;;;;;;68.97;28.53;;;;;;;5.31;54.39;99996.66;5027232;27;100878;-74
2021/04/10 02:24:34;;;;;;;66.80;27.50;;;;;;;5.30;54.38;99994.94;5038586;27;96803;-79
2021/04/10 02:27:06;;;;;;;56.95;26.50;;;;;;;5.32;53.88;99994.91;5058174;27;96971;-74
2021/04/10 02:29:38;;;;;;;54.97;27.85;;;;;;;5.36;54.44;99987.03;5040613;27;102174;-74
2021/04/10 02:32:09;;;;;;;52.57;25.00;;;;;;;5.32;54.59;99998.34;5073801;27;98544;-74
2021/04/10 02:35:07;;;;;;;60.57;26.43;;;;;;;5.29;54.83;99989.75;5041077;27;97173;-74
2021/04/10 02:37:34;;;;;;;55.23;26.77;;;;;;;5.24;54.85;99989.00;5056455;27;97208;-80
2021/04/10 02:40:06;;;;;;;58.87;25.63;;;;;;;5.33;54.75;99981.00;5036542;27;101985;-74
2021/04/10 02:42:40;;;;;;;54.03;26.33;;;;;;;5.19;54.68;99984.72;5036551;27;101707;-75
2021/04/10 02:45:08;;;;;;;59.97;26.00;;;;;;;5.15;55.01;99987.41;5052798;27;97310;-74
2021/04/10 02:47:35;;;;;;;50.63;24.33;;;;;;;5.18;54.52;99990.81;5039432;27;97189;-79
2021/04/10 02:50:05;;;;;;;51.63;24.97;;;;;;;5.17;54.54;99988.22;5055725;27;101537;-74
2021/04/10 02:52:44;;;;;;;53.07;26.47;;;;;;;5.12;54.92;99992.63;5037673;27;101517;-80
2021/04/10 02:55:14;;;;;;;57.13;26.70;;;;;;;5.15;54.88;99990.88;5053210;27;97128;-74
2021/04/10 02:57:40;;;;;;;55.97;25.37;;;;;;;5.14;55.07;99994.31;5035514;27;96871;-74
2021/04/10 03:00:08;;;;;;;44.97;21.37;;;;;;;5.19;54.41;99989.06;5045449;27;101496;-74
2021/04/10 03:02:40;;;;;;;55.03;23.67;;;;;;;5.21;54.67;99984.69;5048731;27;100402;-74
2021/04/10 03:05:11;;;;;;;58.57;25.20;;;;;;;5.16;54.50;99974.34;5040507;27;97375;-74
2021/04/10 03:07:38;;;;;;;57.77;24.57;;;;;;;5.14;54.92;99983.06;5055901;27;97012;-74
2021/04/10 03:10:04;;;;;;;56.83;25.97;;;;;;;5.07;55.45;99977.13;5035934;27;101022;-74
2021/04/10 03:12:30;;;;;;;58.13;26.70;;;;;;;5.08;55.29;99975.38;5049645;27;101334;-74
2021/04/10 03:14:58;;;;;;;60.07;25.43;;;;;;;5.08;55.16;99977.97;5071869;27;97198;-74
2021/04/10 03:17:36;;;;;;;59.90;26.83;;;;;;;5.12;55.27;99987.44;5035200;27;98072;-79
2021/04/10 03:20:02;;;;;;;59.40;27.03;;;;;;;5.08;55.56;99990.97;5055613;27;99879;-74
2021/04/10 03:22:31;;;;;;;60.73;27.03;;;;;;;5.01;55.51;99982.44;5039245;27;101300;-74
2021/04/10 03:24:56;;;;;;;66.17;26.70;;;;;;;4.95;55.67;99985.97;5055344;27;97110;-74
2021/04/10 03:27:23;;;;;;;71.70;28.10;;;;;;;4.92;56.32;99987.78;5031958;27;97405;-74
2021/04/10 03:29:48;;;;;;;78.43;27.60;;;;;;;4.99;55.57;99979.84;5032350;27;100864;-75
2021/04/10 03:32:15;;;;;;;79.90;31.90;;;;;;;5.03;55.22;99977.19;5048219;27;100703;-74
2021/04/10 03:34:46;;;;;;;92.50;33.15;;;;;;;5.00;55.57;99985.91;5048902;27;97330;-74
2021/04/10 03:37:12;;;;;;;101.00;35.03;;;;;;;4.95;55.70;99983.38;5073560;27;97381;-74
2021/04/10 03:39:38;;;;;;;73.80;28.97;;;;;;;4.96;54.55;99979.88;5037412;27;101265;-75
2021/04/10 03:42:08;;;;;;;109.40;40.47;;;;;;;4.92;55.46;99980.84;5055693;27;100355;-75
2021/04/10 03:44:34;;;;;;;112.67;40.07;;;;;;;4.85;55.67;99981.81;5054096;27;96833;-81
2021/04/10 03:47:00;;;;;;;124.77;43.80;;;;;;;4.89;55.79;99982.63;5038705;27;96762;-75
2021/04/10 03:49:26;;;;;;;113.63;39.33;;;;;;;4.89;55.16;99977.44;5038759;27;101576;-74
2021/04/10 03:51:53;;;;;;;66.13;26.10;;;;;;;4.91;54.53;99980.84;5050822;27;100587;-77
2021/04/10 03:54:19;;;;;;;101.50;37.33;;;;;;;4.94;55.19;99980.78;5052194;27;96764;-75
2021/04/10 03:56:47;;;;;;;105.67;37.47;;;;;;;4.83;55.50;99977.50;5052637;27;97027;-74
2021/04/10 03:59:20;;;;;;;75.57;30.27;;;;;;;4.90;55.18;99986.94;5040743;27;99992;-74
2021/04/10 04:01:50;;;;;;;84.40;30.37;;;;;;;4.92;55.53;99987.78;5052567;27;98413;-75
2021/04/10 04:04:17;;;;;;;77.67;31.07;;;;;;;4.89;55.75;99987.84;5055754;27;96988;-75
2021/04/10 04:06:43;;;;;;;75.67;27.23;;;;;;;4.92;55.09;99991.25;5072563;27;97416;-74
2021/04/10 04:09:09;;;;;;;74.77;28.30;;;;;;;4.91;55.44;99991.25;5055226;27;101540;-75
2021/04/10 04:11:34;;;;;;;62.80;25.63;;;;;;;4.92;54.89;99988.63;5043124;27;97949;-80
2021/04/10 04:14:00;;;;;;;61.00;24.03;;;;;;;4.94;55.41;99983.41;5034355;27;96741;-75
2021/04/10 04:16:25;;;;;;;52.80;22.10;;;;;;;5.03;54.63;99980.63;5033922;27;97200;-74
2021/04/10 04:18:51;;;;;;;51.37;21.03;;;;;;;5.04;54.83;99978.91;5054875;27;97987;-75
2021/04/10 04:21:16;;;;;;;47.50;22.53;;;;;;;5.02;54.71;99976.34;5050828;27;98323;-75
2021/04/10 04:23:42;;;;;;;45.07;20.03;;;;;;;5.05;54.66;99978.88;5039577;27;96719;-75
2021/04/10 04:26:07;;;;;;;41.97;17.63;;;;;;;5.15;53.94;99975.25;5030060;27;96929;-75
2021/04/10 04:28:33;;;;;;;48.33;19.03;;;;;;;5.20;54.41;99978.59;5053049;27;98196;-74
2021/04/10 04:30:59;;;;;;;38.97;19.40;;;;;;;5.31;53.53;99975.81;5065670;27;99206;-75
2021/04/10 04:33:24;;;;;;;50.83;21.73;;;;;;;5.31;53.85;99975.81;5055573;27;97180;-75
2021/04/10 04:35:50;;;;;;;57.57;22.97;;;;;;;5.31;53.70;99978.44;5045856;27;97364;-75
2021/04/10 04:38:15;;;;;;;55.47;24.93;;;;;;;5.32;53.83;99980.13;5056707;27;98499;-75
2021/04/10 04:40:41;;;;;;;51.53;23.20;;;;;;;5.61;53.30;99989.16;5056537;27;100730;-75
2021/04/10 04:43:06;;;;;;;33.43;15.73;;;;;;;5.97;51.56;99997.19;5058516;27;97235;-75
2021/04/10 04:45:32;;;;;;;40.97;18.40;;;;;;;6.68;50.46;99992.13;5055144;27;97355;-74
2021/04/10 04:47:57;;;;;;;40.13;19.60;;;;;;;6.76;50.43;99991.97;5055223;27;101856;-75
2021/04/10 04:50:23;;;;;;;58.83;24.37;;;;;;;6.89;51.17;99990.75;5046154;27;101746;-76
2021/04/10 04:52:49;;;;;;;42.63;18.23;;;;;;;7.24;49.32;100002.97;5051666;27;97360;-74
2021/04/10 04:55:14;;;;;;;34.07;15.07;;;;;;;7.46;48.75;100007.63;5054823;27;97796;-75
2021/04/10 04:57:40;;;;;;;32.40;15.13;;;;;;;7.75;47.77;100001.63;5037010;27;101148;-74
2021/04/10 05:00:06;;;;;;;26.40;13.70;;;;;;;7.86;47.28;100002.19;5054194;27;101890;-75
2021/04/10 05:02:32;;;;;;;32.47;14.37;;;;;;;8.04;46.93;99999.94;5040639;27;97189;-74
2021/04/10 05:04:57;;;;;;;25.23;12.63;;;;;;;8.27;46.31;100007.13;5044646;27;97626;-76
2021/04/10 05:07:23;;;;;;;25.08;12.52;;;;;;;8.56;45.44;100014.97;5037437;27;101210;-75
2021/04/10 05:09:49;;;;;;;23.55;10.82;;;;;;;8.83;44.88;100013.25;5030319;27;101590;-75
2021/04/10 05:12:14;;;;;;;24.00;11.77;;;;;;;8.85;45.15;100021.06;5023975;27;97202;-74
2021/04/10 05:14:40;;;;;;;24.85;13.40;;;;;;;8.96;45.10;100010.25;5043659;27;97007;-75
2021/04/10 05:17:05;;;;;;;28.45;12.15;;;;;;;9.46;43.70;100012.97;5065078;27;97793;-75
2021/04/10 05:19:31;;;;;;;18.75;10.50;;;;;;;9.74;43.24;100015.47;5053724;27;101495;-76
2021/04/10 05:21:56;;;;;;;21.77;10.95;;;;;;;9.85;43.25;100017.72;5042791;27;96685;-74
2021/04/10 05:24:22;;;;;;;17.27;9.93;;;;;;;10.11;42.87;100020.22;5041224;27;96889;-74
2021/04/10 05:26:47;;;;;;;23.45;9.43;;;;;;;10.23;42.15;100023.31;5039235;27;101629;-76
2021/04/10 05:29:13;;;;;;;18.55;9.43;;;;;;;10.32;41.78;100023.00;5041327;27;101296;-77
2021/04/10 05:31:38;;;;;;;18.00;9.27;;;;;;;10.26;41.62;100018.81;5040431;27;96832;-81
2021/04/10 05:34:04;;;;;;;18.00;9.38;;;;;;;10.28;41.34;100011.78;5055242;27;97268;-76
2021/04/10 05:36:30;;;;;;;16.17;9.13;;;;;;;10.29;42.23;100002.13;5053952;27;101558;-76
2021/04/10 05:38:55;;;;;;;19.83;8.73;;;;;;;10.22;42.48;99998.88;5047681;27;101189;-76
2021/04/10 05:41:21;;;;;;;20.80;9.00;;;;;;;10.43;42.15;100000.69;5049763;27;96868;-76
2021/04/10 05:43:46;;;;;;;23.55;9.20;;;;;;;10.53;42.25;100009.09;5030508;27;97103;-75
2021/04/10 05:46:12;;;;;;;20.25;10.25;;;;;;;10.47;43.90;100003.19;5047070;27;101571;-76
2021/04/10 05:48:37;;;;;;;27.95;9.65;;;;;;;10.27;42.95;100001.31;5040346;27;102089;-81
2021/04/10 05:51:03;;;;;;;21.08;12.32;;;;;;;10.18;43.83;100006.00;5029394;27;96851;-76
2021/04/10 05:53:29;;;;;;;32.90;12.18;;;;;;;10.00;44.95;100003.19;5046359;27;96902;-76
2021/04/10 05:55:55;;;;;;;21.73;11.65;;;;;;;10.13;44.52;100002.69;5050104;27;98347;-76
2021/04/10 05:58:21;;;;;;;33.85;12.15;;;;;;;10.88;43.27;99991.94;5046550;27;101854;-77
2021/04/10 06:00:47;;;;;;;18.75;12.65;;;;;;;11.82;40.97;100002.88;5067665;27;97247;-77
2021/04/10 06:03:13;;;;;;;22.70;10.88;;;;;;;12.58;39.87;99998.56;5032807;27;97584;-77
2021/04/10 06:05:39;;;;;;;21.17;9.60;;;;;;;13.86;37.83;100006.28;5046341;27;101266;-77
2021/04/10 06:08:05;;;;;;;16.55;8.48;;;;;;;13.64;37.86;100002.09;5033537;27;101615;-77
2021/04/10 06:10:31;;;;;;;21.45;9.13;;;;;;;13.84;37.50;100000.22;5035294;27;97455;-75
2021/04/10 06:12:56;;;;;;;22.27;9.23;;;;;;;14.21;37.37;99999.97;5027613;27;97399;-75
2021/04/10 06:15:22;;;;;;;14.43;8.57;;;;;;;14.73;35.81;99998.06;5035549;27;102113;-75
2021/04/10 06:17:47;;;;;;;15.55;7.40;;;;;;;15.37;35.29;99994.34;5030779;27;101401;-76
2021/04/10 06:20:18;;;;;;;13.77;7.22;;;;;;;15.96;34.08;99995.22;5046803;27;97110;-74
2021/04/10 06:22:44;;;;;;;13.57;7.17;;;;;;;14.92;35.53;99996.94;5028198;27;96936;-74
2021/04/10 06:25:09;;;;;;;19.45;8.25;;;;;;;14.66;36.44;99992.25;5048016;27;99916;-77
2021/04/10 06:27:35;;;;;;;13.40;7.47;;;;;;;14.31;36.30;99994.16;5044646;27;101365;-75
2021/04/10 06:30:02;;;;;;;15.73;7.05;;;;;;;13.95;37.24;99995.22;5063324;27;96874;-75
2021/04/10 06:32:28;;;;;;;13.40;7.13;;;;;;;13.98;38.01;99998.53;5028436;27;97295;-75
2021/04/10 06:34:53;;;;;;;11.05;7.57;;;;;;;13.93;37.78;99999.72;5047626;27;100932;-76
2021/04/10 06:37:19;;;;;;;12.52;7.13;;;;;;;13.93;37.71;99999.72;5045518;27;101535;-75
2021/04/10 06:39:44;;;;;;;9.88;6.47;;;;;;;13.85;38.25;100005.44;5051315;27;96737;-76
2021/04/10 06:42:10;;;;;;;10.20;6.68;;;;;;;13.94;37.82;100014.63;5064753;27;96847;-76
2021/04/10 06:44:36;;;;;;;12.25;7.10;;;;;;;14.18;37.13;100009.84;5063747;27;98056;-76
2021/04/10 06:47:02;;;;;;;14.80;6.88;;;;;;;14.01;37.95;100001.03;5027105;27;100846;-76
2021/04/10 06:49:30;;;;;;;11.90;6.43;;;;;;;13.97;38.23;100003.91;5042673;27;96968;-76
2021/04/10 06:51:57;;;;;;;11.40;6.80;;;;;;;14.97;36.89;99999.28;5034086;27;97319;-76
2021/04/10 06:54:24;;;;;;;11.48;6.90;;;;;;;16.12;35.33;99995.13;5045480;27;98642;-79
2021/04/10 06:57:08;;;;;;;15.13;8.05;;;;;;;19.44;31.50;99987.28;5045328;27;99671;-83
2021/04/10 06:59:42;;;;;;;12.05;7.25;;;;;;;20.28;30.94;99987.88;5027060;27;97084;-86
2021/04/10 07:02:11;;;;;;;11.23;6.75;;;;;;;20.65;30.84;99990.25;5043376;27;97266;-81
2021/04/10 07:04:38;;;;;;;10.20;6.78;;;;;;;19.48;31.25;99979.06;5047567;27;102086;-74
2021/04/10 07:07:04;;;;;;;13.50;6.85;;;;;;;18.71;31.66;99980.31;5045267;27;98606;-75
2021/04/10 07:09:35;;;;;;;15.15;7.50;;;;;;;17.57;33.14;99983.94;5050405;27;97350;-74
2021/04/10 07:12:01;;;;;;;13.87;6.10;;;;;;;16.46;34.29;99980.63;5072402;27;97169;-74
2021/04/10 07:14:27;;;;;;;8.82;6.00;;;;;;;16.02;35.29;99976.28;5052174;27;99979;-74
2021/04/10 07:16:52;;;;;;;11.77;6.20;;;;;;;15.82;35.69;99968.72;5050014;27;97967;-74
2021/04/10 07:19:18;;;;;;;8.55;5.82;;;;;;;17.10;33.82;99961.47;5073208;27;97431;-74
2021/04/10 07:21:43;;;;;;;13.10;6.43;;;;;;;18.88;31.31;99970.25;5053008;27;96961;-74
2021/04/10 07:24:09;;;;;;;7.15;5.05;;;;;;;19.84;29.62;99962.94;5038722;27;101781;-73
2021/04/10 07:26:54;;;;;;;8.85;5.65;;;;;;;19.91;29.58;99960.66;5053422;27;101235;-81
2021/04/10 07:29:29;;;;;;;18.80;6.55;;;;;;;19.67;30.88;99956.28;5073225;27;96820;-75
2021/04/10 07:31:55;;;;;;;9.00;5.28;;;;;;;18.94;31.06;99957.38;5072040;27;96819;-73
2021/04/10 07:34:21;;;;;;;9.48;5.55;;;;;;;18.55;31.27;99966.44;5049260;27;97797;-76
2021/04/10 07:37:01;;;;;;;9.63;5.63;;;;;;;18.00;32.24;99968.56;5051640;27;98491;-74
2021/04/10 07:39:27;;;;;;;9.48;5.65;;;;;;;17.73;31.97;99958.03;5054095;27;97430;-77
2021/04/10 07:42:04;;;;;;;10.95;4.93;;;;;;;17.28;32.06;99960.25;5030420;27;97298;-80
2021/04/10 07:44:39;;;;;;;10.02;4.95;;;;;;;17.51;31.86;99957.81;5049595;27;99891;-82
2021/04/10 07:47:08;;;;;;;10.88;5.30;;;;;;;18.36;31.32;99955.44;5064247;27;98098;-81
2021/04/10 07:49:36;;;;;;;12.95;5.65;;;;;;;19.60;29.57;99949.66;5035676;27;97311;-78
2021/04/10 07:52:07;;;;;;;13.07;5.30;;;;;;;20.96;27.76;99948.59;5066218;27;97293;-79
2021/04/10 07:54:40;;;;;;;16.05;6.70;;;;;;;20.68;27.64;99966.06;5050871;27;101056;-79
2021/04/10 07:57:08;;;;;;;12.13;5.55;;;;;;;22.01;26.84;99956.59;5040493;27;101557;-80
2021/04/10 07:59:49;;;;;;;14.25;5.30;;;;;;;21.18;27.79;99961.00;5053526;27;97070;-78
2021/04/10 08:02:16;;;;;;;8.27;5.28;;;;;;;21.24;27.70;99955.13;5069672;27;96898;-77
2021/04/10 08:04:57;;;;;;;11.38;5.22;;;;;;;20.24;28.45;99958.94;5052716;27;101965;-82
2021/04/10 08:07:26;;;;;;;7.03;4.93;;;;;;;19.09;30.08;99959.84;5036169;27;101445;-76
2021/04/10 08:10:06;;;;;;;10.32;4.97;;;;;;;19.30;29.55;99962.69;5035453;27;97516;-79
2021/04/10 08:12:37;;;;;;;8.30;5.40;;;;;;;21.68;26.89;99953.19;5071106;27;97022;-78
2021/04/10 08:15:09;;;;;;;7.30;5.28;;;;;;;19.96;28.45;99961.13;5035260;27;101568;-80
2021/04/10 08:17:39;;;;;;;9.23;5.05;;;;;;;18.95;29.63;99959.06;5049160;27;98295;-77
2021/04/10 08:20:27;;;;;;;9.43;5.00;;;;;;;18.36;30.38;99969.59;5024605;27;97185;-77
2021/04/10 08:23:22;;;;;;;7.38;4.47;;;;;;;20.38;28.07;99960.50;5043698;27;97200;-77
2021/04/10 08:25:49;;;;;;;11.50;5.40;;;;;;;19.90;28.51;99957.13;5040317;27;101356;-77
2021/04/10 08:28:15;;;;;;;9.70;5.43;;;;;;;18.92;29.68;99961.94;5048998;27;98287;-77
2021/04/10 08:30:42;;;;;;;10.35;4.97;;;;;;;18.24;30.77;99971.31;5053036;27;96925;-82
2021/04/10 08:33:08;;;;;;;10.02;5.05;;;;;;;18.10;31.38;99960.81;5035104;27;96868;-78
2021/04/10 08:35:34;;;;;;;14.00;5.28;;;;;;;18.10;31.10;99964.31;5036086;27;100649;-79
2021/04/10 08:38:01;;;;;;;13.98;5.43;;;;;;;18.17;31.38;99967.38;5049046;27;101546;-79
2021/04/10 08:40:27;;;;;;;11.27;5.25;;;;;;;18.13;30.99;99962.41;5043619;27;96851;-79
2021/04/10 08:42:56;;;;;;;12.32;5.28;;;;;;;18.15;31.06;99966.66;5031348;27;97609;-80
2021/04/10 08:45:31;;;;;;;8.77;4.53;;;;;;;18.72;30.73;99955.41;5030677;27;101422;-79
2021/04/10 08:48:04;;;;;;;9.48;5.03;;;;;;;19.58;29.45;99959.63;5025163;27;103080;-81
2021/04/10 08:50:31;;;;;;;8.85;4.57;;;;;;;19.99;29.25;99960.06;5043381;27;97240;-79
2021/04/10 08:52:57;;;;;;;8.32;5.00;;;;;;;21.41;27.71;99971.56;5043298;27;97912;-79
2021/04/10 08:55:22;;;;;;;12.15;5.38;;;;;;;21.78;26.88;99979.13;5057192;27;98712;-79
2021/04/10 08:57:48;;;;;;;8.65;4.40;;;;;;;22.11;26.83;99970.00;5048330;27;101771;-80
2021/04/10 09:00:19;;;;;;;19.33;15.48;;;;;;;22.59;26.07;99977.34;5033153;27;97126;-79
2021/04/10 09:02:58;;;;;;;6.90;4.10;;;;;;;22.26;25.97;99975.84;5052184;27;97273;-79
2021/04/10 09:05:47;;;;;;;9.98;4.63;;;;;;;22.14;26.06;99978.59;5030501;27;101610;-79
2021/04/10 09:08:29;;;;;;;8.48;4.50;;;;;;;22.11;26.45;99983.38;5036050;27;101678;-80
2021/04/10 09:11:05;;;;;;;12.02;4.53;;;;;;;21.01;27.24;99991.75;5068301;27;97308;-80
2021/04/10 09:13:51;;;;;;;6.30;3.83;;;;;;;19.87;28.35;99989.34;5049371;27;97378;-80
2021/04/10 09:16:25;;;;;;;6.70;4.28;;;;;;;18.99;29.61;99991.59;5052381;27;102892;-81
2021/04/10 09:19:02;;;;;;;8.45;4.25;;;;;;;18.22;30.58;99988.31;5048096;27;101678;-76
2021/04/10 09:21:52;;;;;;;7.82;4.25;;;;;;;17.80;31.25;99996.53;5027180;27;97686;-74
2021/04/10 09:24:36;;;;;;;9.60;4.35;;;;;;;17.45;32.10;99998.03;5065992;27;97517;-73
2021/04/10 09:27:21;;;;;;;5.90;3.97;;;;;;;17.02;33.05;99987.66;5062070;27;98248;-75
2021/04/10 09:29:50;;;;;;;15.80;5.30;;;;;;;16.92;33.16;99996.19;5059717;27;98204;-74
2021/04/10 09:32:39;;;;;;;10.88;3.80;;;;;;;16.68;33.39;99990.69;5059017;27;97028;-74
2021/04/10 09:35:05;;;;;;;12.25;4.35;;;;;;;16.49;33.80;99988.38;5045112;27;97337;-74
2021/04/10 09:37:31;;;;;;;7.72;5.00;;;;;;;16.53;34.06;99987.22;5043024;27;99053;-74
2021/04/10 09:39:59;;;;;;;9.23;4.75;;;;;;;16.32;34.15;99993.88;5058752;27;98212;-74
2021/04/10 09:45:10;;;;;;;10.10;4.72;;;;;;;15.97;34.63;100002.22;5059403;27;97170;-74
2021/04/10 09:47:54;;;;;;;9.30;4.65;;;;;;;16.02;34.64;99996.63;5051568;27;100979;-74
2021/04/10 09:50:45;;;;;;;12.27;4.28;;;;;;;15.99;34.84;100005.59;5056546;27;101203;-74
2021/04/10 09:53:18;;;;;;;9.45;4.00;;;;;;;15.88;34.94;100001.91;5053091;27;97008;-74
2021/04/10 09:55:44;;;;;;;8.20;4.57;;;;;;;15.92;34.75;99996.34;5087288;27;97125;-74
2021/04/10 09:58:17;;;;;;;14.27;5.28;;;;;;;15.80;34.98;99994.47;5050120;27;99998;-76
2021/04/10 10:00:50;;;;;;;6.85;4.55;;;;;;;15.83;35.61;99996.91;5053799;27;98485;-74
2021/04/10 10:03:23;;;;;;;7.93;4.38;;;;;;;15.82;35.25;100004.00;5030566;27;97836;-75
2021/04/10 10:05:53;;;;;;;7.20;4.53;;;;;;;15.91;35.36;99999.06;5075142;27;96715;-82
2021/04/10 10:08:23;;;;;;;5.82;4.13;;;;;;;15.87;35.55;100009.00;5050778;27;101168;-77
2021/04/10 10:10:51;;;;;;;14.80;4.57;;;;;;;15.64;35.87;99999.78;5061641;27;100629;-77
2021/04/10 10:13:20;;;;;;;9.27;4.60;;;;;;;15.49;36.15;99996.25;5068810;27;97069;-77
2021/04/10 10:15:48;;;;;;;9.48;5.05;;;;;;;15.43;36.17;100009.84;5037474;27;97205;-75
2021/04/10 10:18:21;;;;;;;13.32;5.28;;;;;;;15.34;36.20;100005.09;5056949;27;101148;-76
2021/04/10 10:21:08;;;;;;;8.80;4.68;;;;;;;15.23;36.30;100002.25;5091585;27;98465;-74
2021/04/10 10:23:47;;;;;;;8.20;4.38;;;;;;;15.17;36.06;100011.38;5074478;27;97040;-75
2021/04/10 10:26:19;;;;;;;11.45;4.97;;;;;;;15.13;35.88;100005.41;5034063;27;97298;-76
2021/04/10 10:28:50;;;;;;;11.95;5.13;;;;;;;15.15;36.24;100007.97;5045192;27;100991;-74
2021/04/10 10:31:18;;;;;;;11.00;4.82;;;;;;;15.11;36.39;100009.94;5029977;27;101125;-76
2021/04/10 10:33:44;;;;;;;10.50;4.47;;;;;;;15.05;36.27;100012.09;5046451;27;96905;-75
2021/04/10 10:36:11;;;;;;;10.20;4.82;;;;;;;14.99;36.44;100026.50;5030973;27;96922;-76
2021/04/10 10:38:42;;;;;;;12.30;4.88;;;;;;;15.00;36.40;100019.41;5066679;27;98641;-76
2021/04/10 10:41:09;;;;;;;11.90;4.85;;;;;;;15.03;36.83;100024.53;5040494;27;101120;-76
2021/04/10 10:43:35;;;;;;;8.57;4.50;;;;;;;15.01;36.82;100027.28;5050295;27;97292;-76
2021/04/10 10:46:06;;;;;;;10.35;5.25;;;;;;;15.03;37.06;100035.94;5047756;27;97495;-76
2021/04/10 10:48:40;;;;;;;11.23;5.47;;;;;;;15.00;37.13;100048.50;5046493;27;100802;-77
2021/04/10 10:51:18;;;;;;;11.40;4.28;;;;;;;15.02;37.39;100054.56;5068243;27;97975;-76
2021/04/10 10:53:46;;;;;;;7.10;4.20;;;;;;;14.98;37.66;100045.97;5042291;27;97199;-75
2021/04/10 10:56:15;;;;;;;9.82;4.40;;;;;;;15.02;37.52;100058.03;5047122;27;96769;-76
2021/04/10 10:58:52;;;;;;;9.65;4.45;;;;;;;15.10;37.34;100063.75;5048113;27;98603;-77
2021/04/10 11:01:20;;;;;;;11.48;3.97;;;;;;;15.21;37.38;100052.53;5052985;27;100595;-76
2021/04/10 11:04:02;;;;;;;10.10;4.25;;;;;;;15.22;36.76;100064.00;5048545;27;97109;-75
2021/04/10 11:06:45;;;;;;;8.98;4.60;;;;;;;15.25;36.84;100056.72;5062968;27;97130;-76
2021/04/10 11:09:15;;;;;;;11.25;5.90;;;;;;;15.35;36.68;100057.88;5052986;27;100109;-74
2021/04/10 11:11:43;;;;;;;12.80;6.63;;;;;;;15.41;36.87;100061.97;5039040;27;99049;-75
2021/04/10 11:14:09;;;;;;;12.27;5.50;;;;;;;15.50;37.17;100066.72;5055433;27;97307;-76
2021/04/10 11:16:46;;;;;;;9.85;5.28;;;;;;;15.54;36.84;100072.72;5043561;27;97392;-76
2021/04/10 11:19:12;;;;;;;14.85;5.43;;;;;;;15.45;36.40;100070.59;5039531;27;98470;-77
2021/04/10 11:21:37;;;;;;;12.38;5.32;;;;;;;15.48;36.87;100068.63;5052776;27;98074;-76
2021/04/10 11:24:14;;;;;;;12.27;5.70;;;;;;;15.60;37.03;100077.63;5053330;27;97228;-76
2021/04/10 11:26:46;;;;;;;14.48;7.10;;;;;;;15.67;36.80;100076.31;5041964;27;97537;-75
2021/04/10 11:29:22;;;;;;;14.38;5.95;;;;;;;15.84;36.91;100070.91;5055820;27;100692;-78
2021/04/10 11:32:25;;;;;;;15.45;6.40;;;;;;;16.09;36.80;100074.75;5048764;27;100835;-79